Time;durP1;ratioP1;P1;durP2;ratioP2;P2;SDS_P1;SDS_P2;PMS_P1;PMS_P2;Temp;Humidity;BMP_temperature;BMP_pressure;BME280_temperature;BME280_humidity;BME280_pressure;Samples;Min_cycle;Max_cycle;Signal;HPM_P1;HPM_P2
2022/08/24 00:00:38;;;;;;;5.43;4.60;;;;;;;;;;6285739;28;20064;-80
2022/08/24 00:03:42;;;;;;;6.90;4.47;;;;;;;;;;6292782;28;20110;-78
2022/08/24 00:06:43;;;;;;;4.57;4.07;;;;;;;;;;6287058;28;20494;-80
2022/08/24 00:09:46;;;;;;;9.40;4.85;;;;;;;;;;6283065;28;20143;-80
2022/08/24 00:12:51;;;;;;;4.68;4.28;;;;;;;;;;6287873;28;20044;-79
2022/08/24 00:15:52;;;;;;;7.63;5.15;;;;;;;;;;6284671;27;20079;-80
2022/08/24 00:18:54;;;;;;;5.75;4.85;;;;;;;;;;6276378;28;20112;-79
2022/08/24 00:21:56;;;;;;;8.00;4.90;;;;;;;;;;6290045;28;20836;-79
2022/08/24 00:24:58;;;;;;;12.25;5.55;;;;;;;;;;6308397;28;20542;-80
2022/08/24 00:28:00;;;;;;;6.82;5.20;;;;;;;;;;6283015;28;20522;-80
2022/08/24 00:31:02;;;;;;;7.88;5.22;;;;;;;;;;6291865;28;20510;-79
2022/08/24 00:34:08;;;;;;;5.93;5.05;;;;;;;;;;6283666;28;20052;-79
2022/08/24 00:37:10;;;;;;;5.60;5.10;;;;;;;;;;6289657;28;20044;-80
2022/08/24 00:40:25;;;;;;;6.30;5.07;;;;;;;;;;6288912;28;20061;-79
2022/08/24 00:43:27;;;;;;;7.28;5.03;;;;;;;;;;6290946;28;20040;-79
2022/08/24 00:46:53;;;;;;;6.07;5.35;;;;;;;;;;6288910;28;20067;-79
2022/08/24 00:49:59;;;;;;;6.78;5.00;;;;;;;;;;6305881;28;20040;-80
2022/08/24 00:53:05;;;;;;;6.22;4.88;;;;;;;;;;6289609;28;20060;-79
2022/08/24 00:56:11;;;;;;;6.05;5.20;;;;;;;;;;6286535;28;20056;-79
2022/08/24 00:59:35;;;;;;;6.90;4.88;;;;;;;;;;6289525;28;20073;-80
2022/08/24 01:02:42;;;;;;;6.20;5.10;;;;;;;;;;6285009;28;20068;-81
2022/08/24 01:05:44;;;;;;;7.10;5.40;;;;;;;;;;6293191;28;20060;-79
2022/08/24 01:08:49;;;;;;;7.97;5.45;;;;;;;;;;6281803;28;20048;-79
2022/08/24 01:11:57;;;;;;;6.07;5.10;;;;;;;;;;6284098;28;20051;-80
2022/08/24 01:15:01;;;;;;;7.15;5.40;;;;;;;;;;6287794;28;20044;-79
2022/08/24 01:21:39;;;;;;;6.03;5.30;;;;;;;;;;6284128;28;20041;-78
2022/08/24 01:24:42;;;;;;;6.70;5.50;;;;;;;;;;6290683;28;20070;-78
2022/08/24 01:27:47;;;;;;;6.88;5.00;;;;;;;;;;6284196;28;20040;-77
2022/08/24 01:30:49;;;;;;;6.68;5.28;;;;;;;;;;6282272;28;20540;-78
2022/08/24 01:33:52;;;;;;;6.57;5.05;;;;;;;;;;6289157;28;20127;-77
2022/08/24 01:36:55;;;;;;;;;;;;;;;;;;6285987;28;20119;-78
2022/08/24 01:39:59;;;;;;;5.80;4.97;;;;;;;;;;6295623;28;20306;-78
2022/08/24 01:43:05;;;;;;;6.93;5.07;;;;;;;;;;6284172;28;20435;-78
2022/08/24 01:46:07;;;;;;;7.25;5.53;;;;;;;;;;6279983;28;20049;-78
2022/08/24 01:49:09;;;;;;;6.57;5.17;;;;;;;;;;6289981;28;20036;-78
2022/08/24 01:52:15;;;;;;;8.10;5.22;;;;;;;;;;6279381;28;20454;-77
2022/08/24 01:55:18;;;;;;;8.23;5.35;;;;;;;;;;6282429;28;20113;-78
2022/08/24 01:58:23;;;;;;;6.28;5.22;;;;;;;;;;6278906;28;20044;-78
2022/08/24 02:01:27;;;;;;;5.50;5.00;;;;;;;;;;6278513;28;20056;-77
2022/08/24 02:04:33;;;;;;;5.88;5.25;;;;;;;;;;6280503;28;20045;-75
2022/08/24 02:07:35;;;;;;;7.35;4.93;;;;;;;;;;6280765;28;20049;-80
2022/08/24 02:10:36;;;;;;;5.95;4.90;;;;;;;;;;6280976;28;20588;-79
2022/08/24 02:13:41;;;;;;;5.40;4.88;;;;;;;;;;6289663;28;20418;-79
2022/08/24 02:16:42;;;;;;;5.82;5.03;;;;;;;;;;6281386;28;20044;-77
2022/08/24 02:19:45;;;;;;;6.28;5.38;;;;;;;;;;6283490;28;20037;-77
2022/08/24 02:22:51;;;;;;;6.60;5.30;;;;;;;;;;6284004;28;20064;-77
2022/08/24 02:25:54;;;;;;;7.57;5.25;;;;;;;;;;6277487;28;20040;-79
2022/08/24 02:28:55;;;;;;;6.32;4.95;;;;;;;;;;6275903;28;20052;-79
2022/08/24 02:31:59;;;;;;;6.40;5.00;;;;;;;;;;6276331;28;20140;-78
2022/08/24 02:35:01;;;;;;;9.25;5.38;;;;;;;;;;6286209;28;20109;-77
2022/08/24 02:38:03;;;;;;;6.30;5.10;;;;;;;;;;6290231;28;20428;-78
2022/08/24 02:41:06;;;;;;;6.13;5.40;;;;;;;;;;6279933;28;20048;-79
2022/08/24 02:44:07;;;;;;;5.30;4.68;;;;;;;;;;6261247;28;20139;-77
2022/08/24 02:47:09;;;;;;;6.25;5.05;;;;;;;;;;6281167;28;20049;-79
2022/08/24 02:50:14;;;;;;;6.03;5.03;;;;;;;;;;6280810;28;20041;-80
2022/08/24 02:53:20;;;;;;;6.15;5.25;;;;;;;;;;6266171;28;20048;-79
2022/08/24 02:56:22;;;;;;;6.53;5.45;;;;;;;;;;6279143;28;20199;-78
2022/08/24 02:59:24;;;;;;;6.40;5.07;;;;;;;;;;6286682;28;20049;-79
2022/08/24 03:02:26;;;;;;;7.25;5.90;;;;;;;;;;6281369;28;20474;-78
2022/08/24 03:05:28;;;;;;;6.82;5.65;;;;;;;;;;6282769;28;20050;-79
2022/08/24 03:08:30;;;;;;;6.03;5.00;;;;;;;;;;6273752;28;20098;-77
2022/08/24 03:11:36;;;;;;;6.30;5.55;;;;;;;;;;6285138;28;20045;-79
2022/08/24 03:14:39;;;;;;;7.53;5.35;;;;;;;;;;6282254;28;20036;-78
2022/08/24 03:17:41;;;;;;;6.28;5.68;;;;;;;;;;6276839;28;20410;-80
2022/08/24 03:20:43;;;;;;;6.13;5.38;;;;;;;;;;6281871;28;20122;-79
2022/08/24 03:23:45;;;;;;;5.70;4.97;;;;;;;;;;6295365;28;20131;-78
2022/08/24 03:26:47;;;;;;;5.43;4.88;;;;;;;;;;6274481;28;20049;-76
2022/08/24 03:29:48;;;;;;;6.63;5.15;;;;;;;;;;6271401;28;20553;-77
2022/08/24 03:32:51;;;;;;;6.72;5.00;;;;;;;;;;6281463;28;20047;-77
2022/08/24 03:35:54;;;;;;;9.85;5.68;;;;;;;;;;6285060;28;20757;-80
2022/08/24 03:38:56;;;;;;;6.82;5.50;;;;;;;;;;6292261;28;20040;-79
2022/08/24 03:41:58;;;;;;;7.28;5.95;;;;;;;;;;6280249;28;20059;-78
2022/08/24 03:44:59;;;;;;;6.20;5.00;;;;;;;;;;6274591;28;20044;-77
2022/08/24 03:48:01;;;;;;;8.05;5.32;;;;;;;;;;6269833;28;20152;-79
2022/08/24 03:51:04;;;;;;;7.22;5.40;;;;;;;;;;6278793;28;20048;-77
2022/08/24 03:54:08;;;;;;;5.85;4.90;;;;;;;;;;6296220;28;20049;-77
2022/08/24 03:57:09;;;;;;;7.25;5.10;;;;;;;;;;6283798;28;20048;-77
2022/08/24 04:00:12;;;;;;;6.95;4.85;;;;;;;;;;6280179;28;20110;-78
2022/08/24 04:03:24;;;;;;;5.78;5.18;;;;;;;;;;6281162;28;20537;-78
2022/08/24 04:06:29;;;;;;;6.43;5.82;;;;;;;;;;6288732;28;20045;-77
2022/08/24 04:09:31;;;;;;;6.45;5.35;;;;;;;;;;6279771;28;21593;-78
2022/08/24 04:12:33;;;;;;;7.30;5.70;;;;;;;;;;6288617;28;20056;-75
2022/08/24 04:15:39;;;;;;;6.50;5.30;;;;;;;;;;6284960;28;20045;-77
2022/08/24 04:18:42;;;;;;;6.50;5.78;;;;;;;;;;6288862;28;20499;-77
2022/08/24 04:21:45;;;;;;;10.85;5.53;;;;;;;;;;6282648;28;20045;-78
2022/08/24 04:24:48;;;;;;;7.97;5.30;;;;;;;;;;6283953;28;20095;-77
2022/08/24 04:27:50;;;;;;;5.90;5.30;;;;;;;;;;6300858;28;20114;-76
2022/08/24 04:30:51;;;;;;;7.18;5.70;;;;;;;;;;6285738;28;20048;-78
2022/08/24 04:34:03;;;;;;;7.10;5.03;;;;;;;;;;6299635;28;20131;-77
2022/08/24 04:37:05;;;;;;;7.35;5.93;;;;;;;;;;6288936;28;20048;-77
2022/08/24 04:40:12;;;;;;;8.35;6.10;;;;;;;;;;6279531;28;20049;-78
2022/08/24 04:43:19;;;;;;;6.28;5.65;;;;;;;;;;6299275;28;20542;-77
2022/08/24 04:46:22;;;;;;;7.60;5.80;;;;;;;;;;6285332;28;20036;-77
2022/08/24 04:49:23;;;;;;;7.50;6.13;;;;;;;;;;6283447;28;20485;-76
2022/08/24 04:52:25;;;;;;;5.95;5.35;;;;;;;;;;6280522;28;20055;-77
2022/08/24 04:55:27;;;;;;;7.63;5.45;;;;;;;;;;6281459;28;20048;-78
2022/08/24 04:58:30;;;;;;;9.98;5.65;;;;;;;;;;6280448;28;20484;-76
2022/08/24 05:01:32;;;;;;;8.68;5.32;;;;;;;;;;6286708;28;20387;-78
2022/08/24 05:04:36;;;;;;;7.95;5.57;;;;;;;;;;6288068;28;20051;-75
2022/08/24 05:07:38;;;;;;;7.18;5.32;;;;;;;;;;6276305;28;20527;-77
2022/08/24 05:10:43;;;;;;;8.18;5.40;;;;;;;;;;6288254;28;20045;-75
2022/08/24 05:13:45;;;;;;;9.93;5.38;;;;;;;;;;6284904;28;20041;-77
2022/08/24 05:16:48;;;;;;;7.72;5.75;;;;;;;;;;6286201;28;20049;-77
2022/08/24 05:19:57;;;;;;;6.25;5.28;;;;;;;;;;6283131;28;20045;-78
2022/08/24 05:22:58;;;;;;;5.65;5.07;;;;;;;;;;6283049;28;20051;-79
2022/08/24 05:26:09;;;;;;;6.80;5.50;;;;;;;;;;6279490;28;20046;-76
2022/08/24 05:29:11;;;;;;;6.55;5.43;;;;;;;;;;6287398;28;20042;-77
2022/08/24 05:32:21;;;;;;;6.30;5.38;;;;;;;;;;6284365;28;20050;-76
2022/08/24 05:35:25;;;;;;;10.75;5.95;;;;;;;;;;6269533;28;20045;-79
2022/08/24 05:38:27;;;;;;;11.68;6.30;;;;;;;;;;6286014;28;20045;-78
2022/08/24 05:41:29;;;;;;;6.63;5.93;;;;;;;;;;6275186;28;20052;-79
2022/08/24 05:44:40;;;;;;;5.90;5.30;;;;;;;;;;6275610;28;20117;-76
2022/08/24 05:47:44;;;;;;;7.05;5.72;;;;;;;;;;6275175;28;20107;-78
2022/08/24 05:51:11;;;;;;;7.60;5.15;;;;;;;;;;6275338;28;20442;-77
2022/08/24 05:54:25;;;;;;;6.30;5.28;;;;;;;;;;6300873;28;20040;-75
2022/08/24 05:57:35;;;;;;;7.07;5.72;;;;;;;;;;6274415;28;20778;-76
2022/08/24 06:00:51;;;;;;;6.47;5.75;;;;;;;;;;6280901;28;20070;-79
2022/08/24 06:03:54;;;;;;;10.05;6.05;;;;;;;;;;6285896;28;20051;-79
2022/08/24 06:06:57;;;;;;;7.65;5.43;;;;;;;;;;6280783;28;20237;-78
2022/08/24 06:09:59;;;;;;;9.73;6.20;;;;;;;;;;6301817;28;20130;-80
2022/08/24 06:13:20;;;;;;;13.90;6.60;;;;;;;;;;6296303;28;20542;-77
2022/08/24 06:16:22;;;;;;;21.00;6.65;;;;;;;;;;6283122;28;20041;-79
2022/08/24 06:19:26;;;;;;;10.27;5.95;;;;;;;;;;6288136;28;20048;-79
2022/08/24 06:22:28;;;;;;;18.92;6.30;;;;;;;;;;6282069;28;20114;-77
2022/08/24 06:28:52;;;;;;;15.63;6.32;;;;;;;;;;6289611;28;20040;-79
2022/08/24 06:31:55;;;;;;;14.40;6.25;;;;;;;;;;6281501;28;20037;-79
2022/08/24 06:34:58;;;;;;;15.50;6.47;;;;;;;;;;6302610;28;20094;-79
2022/08/24 06:38:00;;;;;;;18.48;6.85;;;;;;;;;;6285589;28;20047;-77
2022/08/24 06:41:03;;;;;;;16.02;5.93;;;;;;;;;;6277769;28;20044;-78
2022/08/24 06:44:06;;;;;;;12.57;5.70;;;;;;;;;;6284585;28;20072;-78
2022/08/24 06:47:20;;;;;;;16.08;6.32;;;;;;;;;;6285171;28;20499;-79
2022/08/24 06:50:26;;;;;;;12.55;6.18;;;;;;;;;;6284521;28;20051;-79
2022/08/24 06:53:29;;;;;;;11.05;6.18;;;;;;;;;;6276542;28;20233;-76
2022/08/24 06:56:31;;;;;;;10.13;5.53;;;;;;;;;;6291056;28;20047;-78
2022/08/24 06:59:33;;;;;;;11.75;5.10;;;;;;;;;;6291459;28;20442;-77
2022/08/24 07:02:35;;;;;;;13.80;5.47;;;;;;;;;;6288053;28;20112;-78
2022/08/24 07:05:38;;;;;;;6.53;5.22;;;;;;;;;;6284727;28;20048;-79
2022/08/24 07:09:19;;;;;;;9.55;4.82;;;;;;;;;;6270944;28;20061;-77
2022/08/24 07:12:22;;;;;;;9.27;4.80;;;;;;;;;;6283136;28;20533;-77
2022/08/24 07:15:25;;;;;;;8.27;4.82;;;;;;;;;;6286543;28;20533;-78
2022/08/24 07:18:43;;;;;;;9.82;4.90;;;;;;;;;;6270315;28;20166;-79
2022/08/24 07:21:56;;;;;;;9.25;4.30;;;;;;;;;;6289025;28;20044;-77
2022/08/24 07:24:59;;;;;;;8.70;4.03;;;;;;;;;;6298469;28;20218;-77
2022/08/24 07:28:02;;;;;;;5.22;3.92;;;;;;;;;;6307138;28;20037;-79
2022/08/24 07:31:12;;;;;;;6.28;3.72;;;;;;;;;;6293110;28;20052;-79
2022/08/24 07:34:22;;;;;;;8.85;3.75;;;;;;;;;;6292515;28;20056;-76
2022/08/24 07:37:24;;;;;;;11.02;4.00;;;;;;;;;;6285734;28;20049;-79
2022/08/24 07:40:32;;;;;;;8.45;3.60;;;;;;;;;;6281368;28;20131;-78
2022/08/24 07:43:55;;;;;;;4.43;2.95;;;;;;;;;;6287273;28;20044;-77
2022/08/24 07:46:57;;;;;;;6.10;2.83;;;;;;;;;;6297257;28;20414;-79
2022/08/24 07:50:16;;;;;;;4.47;2.50;;;;;;;;;;6287145;28;20045;-79
2022/08/24 07:53:18;;;;;;;;;;;;;;;;;;6285418;28;20094;-79
2022/08/24 07:56:27;;;;;;;7.05;2.30;;;;;;;;;;6288177;28;19948;-80
2022/08/24 07:59:32;;;;;;;3.95;2.58;;;;;;;;;;6293051;28;20045;-77
2022/08/24 08:02:35;;;;;;;2.95;2.65;;;;;;;;;;6294024;28;20166;-78
2022/08/24 08:05:38;;;;;;;5.60;2.45;;;;;;;;;;6294539;28;20684;-78
2022/08/24 08:08:40;;;;;;;3.50;2.45;;;;;;;;;;6296250;28;20040;-79
2022/08/24 08:11:43;;;;;;;2.30;2.08;;;;;;;;;;6292599;28;20045;-79
2022/08/24 08:14:44;;;;;;;;;;;;;;;;;;6292423;28;20049;-78
2022/08/24 08:17:46;;;;;;;3.85;2.00;;;;;;;;;;6286428;28;19928;-76
2022/08/24 08:20:56;;;;;;;2.47;2.08;;;;;;;;;;6290930;28;20390;-77
2022/08/24 08:24:16;;;;;;;3.42;2.10;;;;;;;;;;6284264;28;20474;-80
2022/08/24 08:27:26;;;;;;;3.45;2.40;;;;;;;;;;6283675;28;20053;-76
2022/08/24 08:30:28;;;;;;;2.90;2.20;;;;;;;;;;6284424;28;20108;-79
2022/08/24 08:33:30;;;;;;;4.22;2.17;;;;;;;;;;6261744;28;20056;-78
2022/08/24 08:36:33;;;;;;;3.90;2.10;;;;;;;;;;6280873;28;20052;-79
2022/08/24 08:39:35;;;;;;;3.42;2.20;;;;;;;;;;6277037;28;20574;-77
2022/08/24 08:42:41;;;;;;;3.38;2.30;;;;;;;;;;6273192;28;20127;-80
2022/08/24 08:46:08;;;;;;;1.95;1.80;;;;;;;;;;6277350;28;20430;-80
2022/08/24 08:49:43;;;;;;;3.45;2.10;;;;;;;;;;6279125;28;20045;-78
2022/08/24 08:53:10;;;;;;;3.45;2.10;;;;;;;;;;6286954;28;20108;-78
2022/08/24 08:56:27;;;;;;;3.72;2.22;;;;;;;;;;6305683;28;20104;-80
2022/08/24 08:59:36;;;;;;;3.80;2.20;;;;;;;;;;6291680;28;20061;-79
2022/08/24 09:03:10;;;;;;;3.97;2.17;;;;;;;;;;6289863;28;20511;-79
2022/08/24 09:06:23;;;;;;;2.63;2.00;;;;;;;;;;6298996;28;20047;-79
2022/08/24 09:09:53;;;;;;;2.95;1.90;;;;;;;;;;6280867;28;20064;-80
2022/08/24 09:13:14;;;;;;;2.28;2.08;;;;;;;;;;6294813;28;20059;-79
2022/08/24 09:16:31;;;;;;;3.70;2.10;;;;;;;;;;6287769;28;20051;-79
2022/08/24 09:20:12;;;;;;;2.28;1.70;;;;;;;;;;6276214;28;20073;-78
2022/08/24 09:23:24;;;;;;;2.10;1.90;;;;;;;;;;6268885;28;20051;-78
2022/08/24 09:26:51;;;;;;;1.95;1.85;;;;;;;;;;6280207;28;20056;-77
2022/08/24 09:30:00;;;;;;;2.83;1.88;;;;;;;;;;6283273;28;20106;-78
2022/08/24 09:33:07;;;;;;;2.95;1.92;;;;;;;;;;6275523;28;20114;-79
2022/08/24 09:36:19;;;;;;;3.58;1.85;;;;;;;;;;6283449;28;20645;-80
2022/08/24 09:39:47;;;;;;;2.92;1.73;;;;;;;;;;6282590;28;20132;-79
2022/08/24 09:43:10;;;;;;;2.75;1.80;;;;;;;;;;6260143;28;20048;-80
2022/08/24 09:46:25;;;;;;;2.95;1.83;;;;;;;;;;6276261;28;20143;-77
2022/08/24 09:49:48;;;;;;;3.03;1.83;;;;;;;;;;6276084;28;20203;-79
2022/08/24 09:53:18;;;;;;;2.55;1.90;;;;;;;;;;6272924;28;20044;-78
2022/08/24 09:56:51;;;;;;;2.53;1.88;;;;;;;;;;6285966;28;20095;-78
2022/08/24 10:00:43;;;;;;;2.30;2.10;;;;;;;;;;6300747;28;20048;-79
2022/08/24 10:04:04;;;;;;;2.75;2.25;;;;;;;;;;6287073;28;20052;-79
2022/08/24 10:07:46;;;;;;;5.07;1.70;;;;;;;;;;6284989;28;20561;-79
2022/08/24 10:10:56;;;;;;;2.25;2.05;;;;;;;;;;6278145;28;20099;-78
2022/08/24 10:14:00;;;;;;;4.85;2.20;;;;;;;;;;6284806;28;20122;-79
2022/08/24 10:17:14;;;;;;;2.75;2.03;;;;;;;;;;6284414;28;20102;-78
2022/08/24 10:20:25;;;;;;;3.33;1.85;;;;;;;;;;6293995;28;20091;-78
2022/08/24 10:23:57;;;;;;;3.75;1.95;;;;;;;;;;6283915;28;20101;-80
2022/08/24 10:27:14;;;;;;;2.33;2.10;;;;;;;;;;6283567;28;20097;-79
2022/08/24 10:30:39;;;;;;;3.58;2.25;;;;;;;;;;6286716;28;20073;-78
2022/08/24 10:33:51;;;;;;;2.67;1.77;;;;;;;;;;6289275;28;20158;-77
2022/08/24 10:37:07;;;;;;;4.53;1.92;;;;;;;;;;6286310;28;20517;-78
2022/08/24 10:40:38;;;;;;;3.92;2.00;;;;;;;;;;6293534;28;20045;-78
2022/08/24 10:44:01;;;;;;;2.05;1.83;;;;;;;;;;6284706;28;20049;-78
2022/08/24 10:47:12;;;;;;;3.03;2.15;;;;;;;;;;6292341;28;20138;-78
2022/08/24 10:50:50;;;;;;;6.57;2.20;;;;;;;;;;6287471;28;20116;-78
2022/08/24 10:53:53;;;;;;;2.60;1.98;;;;;;;;;;6282475;28;20129;-77
2022/08/24 10:57:19;;;;;;;2.35;1.90;;;;;;;;;;6283606;28;20068;-78
2022/08/24 11:00:26;;;;;;;3.45;2.00;;;;;;;;;;6281813;28;20512;-78
2022/08/24 11:03:28;;;;;;;3.83;1.83;;;;;;;;;;6284246;28;20094;-78
2022/08/24 11:06:42;;;;;;;3.92;2.30;;;;;;;;;;6281484;28;20097;-79
2022/08/24 11:10:06;;;;;;;5.00;2.30;;;;;;;;;;6286824;28;20122;-78
2022/08/24 11:13:19;;;;;;;2.70;2.10;;;;;;;;;;6286676;28;20134;-80
2022/08/24 11:16:36;;;;;;;2.47;1.98;;;;;;;;;;6270760;28;20123;-79
2022/08/24 11:19:37;;;;;;;5.63;2.15;;;;;;;;;;6288782;28;20048;-77
2022/08/24 11:22:55;;;;;;;3.25;2.10;;;;;;;;;;6287459;28;20044;-77
2022/08/24 11:26:14;;;;;;;2.42;2.17;;;;;;;;;;6287963;28;20083;-76
2022/08/24 11:29:16;;;;;;;4.00;2.42;;;;;;;;;;6288841;28;20076;-79
2022/08/24 11:32:28;;;;;;;3.70;2.33;;;;;;;;;;6284815;28;20119;-80
2022/08/24 11:35:32;;;;;;;4.30;2.70;;;;;;;;;;6279007;28;20075;-80
2022/08/24 11:38:34;;;;;;;3.70;2.30;;;;;;;;;;6281801;28;20060;-80
2022/08/24 11:41:48;;;;;;;2.40;2.20;;;;;;;;;;6278091;28;20079;-79
2022/08/24 11:45:01;;;;;;;5.85;2.30;;;;;;;;;;6279943;28;20060;-79
2022/08/24 11:48:35;;;;;;;3.63;2.63;;;;;;;;;;6292527;28;20657;-78
2022/08/24 11:51:53;;;;;;;3.03;2.30;;;;;;;;;;6285365;28;20048;-81
2022/08/24 11:55:12;;;;;;;4.03;2.58;;;;;;;;;;6275759;28;20052;-80
2022/08/24 11:58:39;;;;;;;4.40;2.30;;;;;;;;;;6278941;28;20195;-81
2022/08/24 12:01:50;;;;;;;3.08;2.47;;;;;;;;;;6279879;28;20121;-80
2022/08/24 12:05:21;;;;;;;3.33;2.60;;;;;;;;;;6270034;28;20056;-80
2022/08/24 12:08:48;;;;;;;4.88;2.85;;;;;;;;;;6275567;28;20131;-80
2022/08/24 12:11:59;;;;;;;3.20;3.00;;;;;;;;;;6285744;28;20137;-79
2022/08/24 12:15:11;;;;;;;4.22;2.42;;;;;;;;;;6279986;28;20398;-80
2022/08/24 12:18:28;;;;;;;2.90;2.60;;;;;;;;;;6283172;28;20619;-80
2022/08/24 12:21:32;;;;;;;2.90;2.45;;;;;;;;;;6282586;28;20167;-79
2022/08/24 12:24:44;;;;;;;3.97;2.53;;;;;;;;;;6285986;28;20036;-80
2022/08/24 12:27:46;;;;;;;3.25;2.65;;;;;;;;;;6283552;28;20087;-80
2022/08/24 12:30:49;;;;;;;;;;;;;;;;;;6284124;28;20140;-81
2022/08/24 12:33:54;;;;;;;2.58;2.22;;;;;;;;;;6286060;28;20007;-81
2022/08/24 12:37:09;;;;;;;2.65;2.08;;;;;;;;;;6284487;28;20108;-80
2022/08/24 12:40:38;;;;;;;2.30;2.10;;;;;;;;;;6284911;28;20044;-79
2022/08/24 12:44:11;;;;;;;2.60;2.40;;;;;;;;;;6280719;28;20128;-79
2022/08/24 12:47:42;;;;;;;2.30;2.10;;;;;;;;;;6282685;27;20126;-79
2022/08/24 12:50:52;;;;;;;3.05;2.20;;;;;;;;;;6283862;28;20064;-79
2022/08/24 12:54:26;;;;;;;3.22;2.08;;;;;;;;;;6278795;28;20585;-79
2022/08/24 12:57:39;;;;;;;5.20;2.20;;;;;;;;;;6288025;28;20044;-81
2022/08/24 13:00:55;;;;;;;3.83;2.20;;;;;;;;;;6287099;28;20051;-81
2022/08/24 13:04:11;;;;;;;2.83;2.38;;;;;;;;;;6267393;28;20044;-79
2022/08/24 13:07:22;;;;;;;2.63;2.20;;;;;;;;;;6286144;28;20051;-80
2022/08/24 13:10:24;;;;;;;3.10;2.25;;;;;;;;;;6286829;28;20064;-81
2022/08/24 13:13:39;;;;;;;;;;;;;;;;;;6280889;28;20122;-81
2022/08/24 13:16:55;;;;;;;3.05;2.28;;;;;;;;;;6288228;28;19961;-79
2022/08/24 13:20:28;;;;;;;4.78;2.30;;;;;;;;;;6275907;28;20104;-80
2022/08/24 13:23:31;;;;;;;2.55;2.10;;;;;;;;;;6263933;28;20076;-81
2022/08/24 13:26:34;;;;;;;2.53;2.00;;;;;;;;;;6275173;28;20052;-80
2022/08/24 13:29:38;;;;;;;2.40;2.20;;;;;;;;;;6294931;28;20564;-81
2022/08/24 13:32:46;;;;;;;2.95;2.20;;;;;;;;;;6284570;28;20048;-80
2022/08/24 13:35:55;;;;;;;3.30;2.05;;;;;;;;;;6294576;28;20120;-80
2022/08/24 13:39:34;;;;;;;2.58;2.10;;;;;;;;;;6281054;28;20115;-80
2022/08/24 13:43:02;;;;;;;2.83;1.90;;;;;;;;;;6280471;28;20538;-81
2022/08/24 13:46:31;;;;;;;3.28;1.88;;;;;;;;;;6278516;28;20067;-81
2022/08/24 13:49:46;;;;;;;3.90;2.00;;;;;;;;;;6279773;28;20041;-80
2022/08/24 13:53:10;;;;;;;2.33;1.90;;;;;;;;;;6277944;28;20135;-79
2022/08/24 13:56:37;;;;;;;4.32;2.35;;;;;;;;;;6279593;28;20498;-80
2022/08/24 13:59:54;;;;;;;4.55;2.10;;;;;;;;;;6295874;28;20056;-81
2022/08/24 14:03:05;;;;;;;3.95;2.30;;;;;;;;;;6279918;28;20051;-80
2022/08/24 14:06:30;;;;;;;2.20;2.00;;;;;;;;;;6279273;28;20499;-79
2022/08/24 14:09:57;;;;;;;3.42;2.20;;;;;;;;;;6273401;28;20126;-80
2022/08/24 14:13:14;;;;;;;4.20;2.20;;;;;;;;;;6278675;28;20141;-79
2022/08/24 14:20:38;;;;;;;2.53;2.00;;;;;;;;;;6285656;28;20048;-79
2022/08/24 14:24:01;;;;;;;3.33;2.08;;;;;;;;;;6273567;28;20151;-80
2022/08/24 14:27:09;;;;;;;3.45;1.92;;;;;;;;;;6285363;28;20036;-80
2022/08/24 14:30:16;;;;;;;2.33;2.13;;;;;;;;;;6288852;28;20049;-80
2022/08/24 14:33:29;;;;;;;2.17;1.70;;;;;;;;;;6268294;28;20040;-80
2022/08/24 14:36:47;;;;;;;2.92;1.60;;;;;;;;;;6268329;28;20306;-78
2022/08/24 14:40:25;;;;;;;2.45;2.17;;;;;;;;;;6268500;28;20071;-79
2022/08/24 14:44:02;;;;;;;2.05;1.90;;;;;;;;;;6267418;28;20136;-78
2022/08/24 14:47:07;;;;;;;2.78;2.20;;;;;;;;;;6267319;28;20044;-78
2022/08/24 14:50:21;;;;;;;2.20;1.83;;;;;;;;;;6273361;28;20414;-79
2022/08/24 14:53:22;;;;;;;3.85;2.10;;;;;;;;;;6265647;28;20087;-77
2022/08/24 14:56:41;;;;;;;;;;;;;;;;;;6282535;28;20047;-78
2022/08/24 15:00:06;;;;;;;2.40;2.08;;;;;;;;;;6280286;28;19921;-78
2022/08/24 15:03:27;;;;;;;2.70;1.67;;;;;;;;;;6278074;28;20162;-78
2022/08/24 15:06:45;;;;;;;2.92;1.92;;;;;;;;;;6281274;28;20513;-78
2022/08/24 15:09:48;;;;;;;1.73;1.63;;;;;;;;;;6267643;28;20167;-76
2022/08/24 15:12:58;;;;;;;3.90;1.88;;;;;;;;;;6279447;28;20063;-78
2022/08/24 15:17:02;;;;;;;2.47;1.90;;;;;;;;;;6283795;28;20052;-78
2022/08/24 15:20:52;;;;;;;2.85;1.80;;;;;;;;;;6196429;28;20130;-78
2022/08/24 15:24:12;;;;;;;3.40;1.90;;;;;;;;;;6275784;28;20068;-78
2022/08/24 15:27:26;;;;;;;2.00;1.55;;;;;;;;;;6272462;28;21081;-78
2022/08/24 15:30:31;;;;;;;2.03;1.65;;;;;;;;;;6298156;28;20662;-78
2022/08/24 15:33:35;;;;;;;3.05;1.80;;;;;;;;;;6283115;28;20119;-77
2022/08/24 15:36:40;;;;;;;3.72;1.98;;;;;;;;;;6281789;28;20132;-78
2022/08/24 15:39:42;;;;;;;3.25;1.92;;;;;;;;;;6279570;28;20128;-78
2022/08/24 15:42:47;;;;;;;2.58;1.70;;;;;;;;;;6280426;28;20087;-77
2022/08/24 15:45:50;;;;;;;3.60;1.73;;;;;;;;;;6278162;28;20132;-79
2022/08/24 15:49:02;;;;;;;2.72;1.60;;;;;;;;;;6282827;28;20048;-78
2022/08/24 15:52:07;;;;;;;2.42;1.60;;;;;;;;;;6277924;28;20060;-78
2022/08/24 15:55:23;;;;;;;2.42;1.67;;;;;;;;;;6278906;28;20562;-78
2022/08/24 15:58:37;;;;;;;2.15;1.50;;;;;;;;;;6280127;28;20554;-77
2022/08/24 16:05:24;;;;;;;2.83;1.63;;;;;;;;;;6277229;28;20127;-77
2022/08/24 16:08:29;;;;;;;2.53;1.45;;;;;;;;;;6280765;28;20049;-77
2022/08/24 16:11:38;;;;;;;2.53;1.70;;;;;;;;;;6279451;28;20047;-77
2022/08/24 16:14:47;;;;;;;3.22;1.80;;;;;;;;;;6280301;28;20098;-77
2022/08/24 16:17:53;;;;;;;1.92;1.70;;;;;;;;;;6272726;28;20049;-77
2022/08/24 16:20:57;;;;;;;3.38;1.70;;;;;;;;;;6277625;28;20131;-77
2022/08/24 16:24:12;;;;;;;3.08;1.50;;;;;;;;;;6276390;28;20135;-77
2022/08/24 16:27:16;;;;;;;2.13;1.70;;;;;;;;;;6278753;28;20458;-76
2022/08/24 16:30:34;;;;;;;1.80;1.48;;;;;;;;;;6279417;28;20048;-77
2022/08/24 16:33:45;;;;;;;1.50;1.40;;;;;;;;;;6282196;28;20490;-77
2022/08/24 16:36:47;;;;;;;2.28;1.40;;;;;;;;;;6278229;28;20041;-76
2022/08/24 16:39:48;;;;;;;1.65;1.40;;;;;;;;;;6278048;28;20114;-77
2022/08/24 16:42:51;;;;;;;2.97;1.40;;;;;;;;;;6278506;28;20040;-77
2022/08/24 16:45:53;;;;;;;2.40;1.50;;;;;;;;;;6277725;28;20054;-77
2022/08/24 16:48:55;;;;;;;2.28;1.73;;;;;;;;;;6279752;28;20044;-76
2022/08/24 16:51:56;;;;;;;2.08;1.85;;;;;;;;;;6275497;28;20398;-77
2022/08/24 16:55:00;;;;;;;2.78;1.98;;;;;;;;;;6275577;28;20131;-77
2022/08/24 16:58:03;;;;;;;3.03;1.80;;;;;;;;;;6273303;28;20090;-77
2022/08/24 17:01:05;;;;;;;3.10;1.83;;;;;;;;;;6274916;28;20053;-76
2022/08/24 17:04:06;;;;;;;4.75;1.98;;;;;;;;;;6279638;28;20040;-77
2022/08/24 17:07:12;;;;;;;3.25;2.33;;;;;;;;;;6275966;28;20135;-78
2022/08/24 17:10:16;;;;;;;2.20;1.80;;;;;;;;;;6277548;28;20124;-79
2022/08/24 17:13:19;;;;;;;4.82;1.92;;;;;;;;;;6279018;28;20047;-78
2022/08/24 17:16:41;;;;;;;2.42;1.80;;;;;;;;;;6290097;28;20058;-78
2022/08/24 17:19:43;;;;;;;4.35;2.10;;;;;;;;;;6276687;28;20087;-79
2022/08/24 17:22:45;;;;;;;2.97;1.95;;;;;;;;;;6275451;28;20048;-78
2022/08/24 17:25:46;;;;;;;4.65;1.90;;;;;;;;;;6279264;28;20067;-79
2022/08/24 17:28:53;;;;;;;8.23;2.50;;;;;;;;;;6278307;28;20088;-78
2022/08/24 17:31:54;;;;;;;4.15;2.10;;;;;;;;;;6272733;28;20033;-79
2022/08/24 17:34:56;;;;;;;2.40;2.20;;;;;;;;;;6284733;28;20043;-80
2022/08/24 17:37:59;;;;;;;2.97;2.08;;;;;;;;;;6278032;28;20082;-82
2022/08/24 17:41:00;;;;;;;4.50;2.58;;;;;;;;;;6265107;28;20056;-80
2022/08/24 17:44:03;;;;;;;3.22;2.08;;;;;;;;;;6284948;28;20186;-79
2022/08/24 17:47:06;;;;;;;3.75;2.20;;;;;;;;;;6282735;28;20062;-81
2022/08/24 17:50:10;;;;;;;3.80;2.40;;;;;;;;;;6269317;28;20060;-79
2022/08/24 17:53:12;;;;;;;3.17;2.25;;;;;;;;;;6282655;28;20170;-81
2022/08/24 17:56:15;;;;;;;3.78;2.10;;;;;;;;;;6280227;28;20128;-80
2022/08/24 17:59:29;;;;;;;2.70;2.20;;;;;;;;;;6283309;28;20402;-82
2022/08/24 18:02:30;;;;;;;3.65;2.25;;;;;;;;;;6277389;28;20068;-82
2022/08/24 18:05:33;;;;;;;2.47;2.17;;;;;;;;;;6276742;28;20112;-78
2022/08/24 18:08:35;;;;;;;3.03;2.05;;;;;;;;;;6270720;28;20132;-81
2022/08/24 18:11:37;;;;;;;3.22;2.40;;;;;;;;;;6278197;28;20147;-80
2022/08/24 18:14:39;;;;;;;2.28;1.98;;;;;;;;;;6273072;28;20537;-79
2022/08/24 18:17:48;;;;;;;2.53;1.95;;;;;;;;;;6276250;28;20179;-80
2022/08/24 18:20:50;;;;;;;3.95;2.30;;;;;;;;;;6269869;28;20119;-78
2022/08/24 18:23:51;;;;;;;3.05;2.30;;;;;;;;;;6273813;28;20086;-78
2022/08/24 18:26:53;;;;;;;3.70;3.10;;;;;;;;;;6273831;28;20113;-76
2022/08/24 18:30:05;;;;;;;4.55;3.03;;;;;;;;;;6279752;28;20078;-76
2022/08/24 18:33:09;;;;;;;4.57;3.47;;;;;;;;;;6275646;28;20036;-76
2022/08/24 18:36:10;;;;;;;4.68;2.78;;;;;;;;;;6277768;28;20117;-76
2022/08/24 18:39:14;;;;;;;4.75;3.72;;;;;;;;;;6290637;28;20052;-76
2022/08/24 18:42:16;;;;;;;4.45;3.42;;;;;;;;;;6271691;28;20559;-75
2022/08/24 18:45:18;;;;;;;2.97;2.28;;;;;;;;;;6276082;28;20564;-76
2022/08/24 18:48:21;;;;;;;5.30;2.28;;;;;;;;;;6278730;28;20142;-74
2022/08/24 18:51:23;;;;;;;6.85;2.30;;;;;;;;;;6274148;28;20041;-74
2022/08/24 18:54:38;;;;;;;2.50;2.30;;;;;;;;;;6271017;28;20045;-76
2022/08/24 18:57:40;;;;;;;4.05;2.70;;;;;;;;;;6275628;28;20544;-76
2022/08/24 19:00:41;;;;;;;5.78;2.40;;;;;;;;;;6270537;28;20555;-76
2022/08/24 19:03:44;;;;;;;3.75;2.60;;;;;;;;;;6280564;28;20049;-74
2022/08/24 19:06:46;;;;;;;3.17;2.30;;;;;;;;;;6267427;28;20133;-76
2022/08/24 19:09:47;;;;;;;2.85;2.55;;;;;;;;;;6268845;28;20149;-76